Time;durP1;ratioP1;P1;durP2;ratioP2;P2;SDS_P1;SDS_P2;PMS_P1;PMS_P2;Temp;Humidity;BMP_temperature;BMP_pressure;BME280_temperature;BME280_humidity;BME280_pressure;Samples;Min_cycle;Max_cycle;Signal;HPM_P1;HPM_P2
2021/10/12 00:02:03;;;;;;;0.70;0.57;;;;;;;;;;5059275;28;20135;-67
2021/10/12 00:04:30;;;;;;;2.47;0.80;;;;;;;;;;5061415;28;20130;-67
2021/10/12 00:06:56;;;;;;;3.45;1.02;;;;;;;;;;5057616;28;20114;-67
2021/10/12 00:09:22;;;;;;;0.50;0.50;;;;;;;;;;5057683;28;20105;-67
2021/10/12 00:11:52;;;;;;;3.92;0.60;;;;;;;;;;5065128;28;20127;-67
2021/10/12 00:14:19;;;;;;;2.15;0.70;;;;;;;;;;5059711;28;20083;-67
2021/10/12 00:16:45;;;;;;;0.43;0.43;;;;;;;;;;5056359;28;20123;-67
2021/10/12 00:19:12;;;;;;;5.32;0.88;;;;;;;;;;5059762;28;20603;-67
2021/10/12 00:21:38;;;;;;;1.63;1.13;;;;;;;;;;5068543;28;20058;-67
2021/10/12 00:24:05;;;;;;;2.53;0.80;;;;;;;;;;5062981;28;20480;-67
2021/10/12 00:26:31;;;;;;;0.55;0.50;;;;;;;;;;5063327;28;20127;-67
2021/10/12 00:28:58;;;;;;;0.80;0.70;;;;;;;;;;5065673;28;20085;-67
2021/10/12 00:31:24;;;;;;;1.27;0.90;;;;;;;;;;5057120;28;20052;-67
2021/10/12 00:33:51;;;;;;;1.10;0.52;;;;;;;;;;5064203;28;20052;-67
2021/10/12 00:36:17;;;;;;;1.38;0.73;;;;;;;;;;5057246;28;20481;-67
2021/10/12 00:38:43;;;;;;;1.35;0.70;;;;;;;;;;5064131;28;20516;-68
2021/10/12 00:41:10;;;;;;;0.75;0.57;;;;;;;;;;5066821;28;20140;-67
2021/10/12 00:43:37;;;;;;;2.30;0.50;;;;;;;;;;5064867;28;20140;-67
2021/10/12 00:46:03;;;;;;;0.52;0.52;;;;;;;;;;5067417;28;20115;-67
2021/10/12 00:48:30;;;;;;;1.70;0.80;;;;;;;;;;5063351;28;20049;-67
2021/10/12 00:50:57;;;;;;;2.13;0.70;;;;;;;;;;5060560;28;20087;-67
2021/10/12 00:53:24;;;;;;;0.60;0.60;;;;;;;;;;5064234;28;20131;-67
2021/10/12 00:55:50;;;;;;;1.13;0.77;;;;;;;;;;5064080;28;20111;-67
2021/10/12 00:58:17;;;;;;;2.58;0.80;;;;;;;;;;5059183;28;20053;-67
2021/10/12 01:00:43;;;;;;;1.35;0.57;;;;;;;;;;5062356;28;20045;-67
2021/10/12 01:03:10;;;;;;;0.75;0.50;;;;;;;;;;5059688;28;20120;-67
2021/10/12 01:05:37;;;;;;;1.83;0.70;;;;;;;;;;5065926;28;20056;-67
2021/10/12 01:08:03;;;;;;;1.75;0.88;;;;;;;;;;5062007;28;20084;-67
2021/10/12 01:10:30;;;;;;;1.77;0.83;;;;;;;;;;5055261;28;20077;-67
2021/10/12 01:12:57;;;;;;;0.98;0.63;;;;;;;;;;5062529;28;20325;-67
2021/10/12 01:15:24;;;;;;;0.40;0.40;;;;;;;;;;5063283;28;20084;-67
2021/10/12 01:17:50;;;;;;;4.80;1.05;;;;;;;;;;5058994;28;20080;-67
2021/10/12 01:20:17;;;;;;;0.85;0.70;;;;;;;;;;5052793;28;20076;-67
2021/10/12 01:22:44;;;;;;;7.15;1.17;;;;;;;;;;5059839;28;20128;-67
2021/10/12 01:25:12;;;;;;;0.60;0.60;;;;;;;;;;5067055;28;20080;-67
2021/10/12 01:27:38;;;;;;;0.75;0.30;;;;;;;;;;5064793;28;20132;-67
2021/10/12 01:30:06;;;;;;;0.98;0.70;;;;;;;;;;5061210;28;20140;-68
2021/10/12 01:32:32;;;;;;;;;;;;;;;;;;5065170;28;20128;-67
2021/10/12 01:34:59;;;;;;;1.13;0.40;;;;;;;;;;5064781;28;19955;-67
2021/10/12 01:37:28;;;;;;;0.60;0.57;;;;;;;;;;5061876;28;20501;-67
2021/10/12 01:39:54;;;;;;;0.63;0.52;;;;;;;;;;5064078;28;20052;-67
2021/10/12 01:42:21;;;;;;;2.58;0.73;;;;;;;;;;5063854;28;20135;-67
2021/10/12 01:44:47;;;;;;;3.80;0.80;;;;;;;;;;5060331;28;20135;-67
2021/10/12 01:47:14;;;;;;;0.70;0.53;;;;;;;;;;5066239;28;20592;-67
2021/10/12 01:49:40;;;;;;;0.82;0.73;;;;;;;;;;5066834;28;20860;-67
2021/10/12 01:52:10;;;;;;;0.60;0.60;;;;;;;;;;5061628;28;20075;-67
2021/10/12 01:54:36;;;;;;;0.80;0.63;;;;;;;;;;5060821;28;20572;-67
2021/10/12 01:57:03;;;;;;;3.78;0.60;;;;;;;;;;5060955;28;20526;-67
2021/10/12 01:59:29;;;;;;;0.85;0.50;;;;;;;;;;5059632;28;20128;-67
2021/10/12 02:02:01;;;;;;;0.60;0.60;;;;;;;;;;5064172;28;20059;-67
2021/10/12 02:04:31;;;;;;;0.63;0.60;;;;;;;;;;5060056;28;20052;-67
2021/10/12 02:06:57;;;;;;;0.65;0.40;;;;;;;;;;5058775;28;20136;-67
2021/10/12 02:09:24;;;;;;;2.15;0.90;;;;;;;;;;5060980;28;20500;-67
2021/10/12 02:11:50;;;;;;;1.08;0.70;;;;;;;;;;5062924;28;20049;-67
2021/10/12 02:14:17;;;;;;;1.00;0.52;;;;;;;;;;5064616;28;20060;-67
2021/10/12 02:16:44;;;;;;;1.77;0.50;;;;;;;;;;5062006;28;20160;-66
2021/10/12 02:19:10;;;;;;;1.15;0.57;;;;;;;;;;5042704;28;20103;-67
2021/10/12 02:21:37;;;;;;;0.70;0.60;;;;;;;;;;5047896;28;20076;-67
2021/10/12 02:24:03;;;;;;;1.58;0.50;;;;;;;;;;5040339;28;20073;-67
2021/10/12 02:26:30;;;;;;;0.85;0.50;;;;;;;;;;5047609;28;20131;-67
2021/10/12 02:28:57;;;;;;;3.90;0.80;;;;;;;;;;5048324;28;20311;-68
2021/10/12 02:31:23;;;;;;;1.02;0.50;;;;;;;;;;5041113;28;20510;-67
2021/10/12 02:33:49;;;;;;;1.92;0.77;;;;;;;;;;5046368;28;20053;-68
2021/10/12 02:36:16;;;;;;;0.65;0.60;;;;;;;;;;5041621;28;20124;-67
2021/10/12 02:38:42;;;;;;;0.90;0.70;;;;;;;;;;5042444;28;20952;-67
2021/10/12 02:41:08;;;;;;;2.72;0.52;;;;;;;;;;5047768;28;20487;-67
2021/10/12 02:43:35;;;;;;;0.82;0.52;;;;;;;;;;5041154;28;20517;-67
2021/10/12 02:46:01;;;;;;;1.08;0.60;;;;;;;;;;5033391;28;20083;-67
2021/10/12 02:48:28;;;;;;;0.70;0.50;;;;;;;;;;5037281;28;20056;-67
2021/10/12 02:50:55;;;;;;;0.95;0.68;;;;;;;;;;5034329;28;20326;-67
2021/10/12 02:53:22;;;;;;;0.63;0.60;;;;;;;;;;5047155;28;20500;-66
2021/10/12 02:55:48;;;;;;;0.68;0.60;;;;;;;;;;5045688;28;20048;-67
2021/10/12 02:58:17;;;;;;;0.45;0.45;;;;;;;;;;5047026;28;20088;-67
2021/10/12 03:00:43;;;;;;;1.40;0.70;;;;;;;;;;5042996;28;20133;-67
2021/10/12 03:03:10;;;;;;;1.15;0.70;;;;;;;;;;5047916;28;20088;-67
2021/10/12 03:05:42;;;;;;;0.60;0.50;;;;;;;;;;5043601;28;20053;-67
2021/10/12 03:08:08;;;;;;;0.35;0.35;;;;;;;;;;5047596;28;20073;-67
2021/10/12 03:10:35;;;;;;;0.60;0.60;;;;;;;;;;5038671;28;20077;-67
2021/10/12 03:13:01;;;;;;;0.75;0.68;;;;;;;;;;5042768;28;20129;-67
2021/10/12 03:15:28;;;;;;;1.20;0.60;;;;;;;;;;5048593;28;20049;-67
2021/10/12 03:17:54;;;;;;;0.47;0.40;;;;;;;;;;5060998;28;20120;-67
2021/10/12 03:20:22;;;;;;;0.38;0.38;;;;;;;;;;5068528;28;20080;-67
2021/10/12 03:22:49;;;;;;;0.55;0.55;;;;;;;;;;5065231;28;20088;-67
2021/10/12 03:25:15;;;;;;;0.65;0.43;;;;;;;;;;5064761;28;20084;-67
2021/10/12 03:27:41;;;;;;;1.02;0.60;;;;;;;;;;5064446;28;20084;-67
2021/10/12 03:30:08;;;;;;;2.95;0.80;;;;;;;;;;5065767;28;20079;-67
2021/10/12 03:32:35;;;;;;;1.67;0.90;;;;;;;;;;5065977;28;20183;-67
2021/10/12 03:35:02;;;;;;;3.00;0.75;;;;;;;;;;5067454;28;20124;-67
2021/10/12 03:37:28;;;;;;;0.60;0.50;;;;;;;;;;5065307;28;20132;-67
2021/10/12 03:39:54;;;;;;;1.08;0.75;;;;;;;;;;5066926;28;20080;-67
2021/10/12 03:42:21;;;;;;;0.95;0.70;;;;;;;;;;5062571;28;20127;-67
2021/10/12 03:44:47;;;;;;;1.92;0.80;;;;;;;;;;5065131;28;20080;-67
2021/10/12 03:47:13;;;;;;;0.90;0.80;;;;;;;;;;5059566;28;20127;-67
2021/10/12 03:49:40;;;;;;;1.10;0.60;;;;;;;;;;5064810;28;20076;-67
2021/10/12 03:52:07;;;;;;;1.23;0.60;;;;;;;;;;5065942;28;20395;-67
2021/10/12 03:54:33;;;;;;;0.90;0.75;;;;;;;;;;5066247;28;20144;-67
2021/10/12 03:57:00;;;;;;;1.42;0.77;;;;;;;;;;5065766;28;20040;-66
2021/10/12 03:59:26;;;;;;;0.80;0.68;;;;;;;;;;5067767;28;20171;-67
2021/10/12 04:01:53;;;;;;;0.70;0.70;;;;;;;;;;5061896;28;20125;-67
2021/10/12 04:04:19;;;;;;;0.47;0.47;;;;;;;;;;5069003;28;20049;-67
2021/10/12 04:06:46;;;;;;;0.52;0.47;;;;;;;;;;5068451;28;20049;-67
2021/10/12 04:09:12;;;;;;;2.40;0.95;;;;;;;;;;5068254;28;20045;-67
2021/10/12 04:11:39;;;;;;;2.53;0.82;;;;;;;;;;5069772;28;20044;-67
2021/10/12 04:14:05;;;;;;;2.38;0.57;;;;;;;;;;5065857;28;20071;-67
2021/10/12 04:16:32;;;;;;;2.17;0.60;;;;;;;;;;5063506;28;20558;-67
2021/10/12 04:18:59;;;;;;;3.72;1.00;;;;;;;;;;5062896;28;20151;-67
2021/10/12 04:21:26;;;;;;;1.00;0.90;;;;;;;;;;5060056;28;20080;-67
2021/10/12 04:23:52;;;;;;;2.80;0.68;;;;;;;;;;5062827;28;20489;-67
2021/10/12 04:26:19;;;;;;;1.15;0.80;;;;;;;;;;5062881;28;20124;-67
2021/10/12 04:28:46;;;;;;;0.88;0.75;;;;;;;;;;5063149;28;20059;-67
2021/10/12 04:31:12;;;;;;;2.20;0.65;;;;;;;;;;5058059;28;20080;-67
2021/10/12 04:33:39;;;;;;;0.95;0.82;;;;;;;;;;5061232;28;20049;-67
2021/10/12 04:36:06;;;;;;;3.85;0.98;;;;;;;;;;5063156;28;20143;-67
2021/10/12 04:38:32;;;;;;;2.92;0.77;;;;;;;;;;5066463;28;20576;-67
2021/10/12 04:40:59;;;;;;;1.70;1.02;;;;;;;;;;5063076;28;20119;-67
2021/10/12 04:43:25;;;;;;;2.17;0.70;;;;;;;;;;5061184;28;20139;-67
2021/10/12 04:45:52;;;;;;;3.47;0.90;;;;;;;;;;5066100;28;20087;-67
2021/10/12 04:48:18;;;;;;;0.73;0.73;;;;;;;;;;5059399;28;20714;-67
2021/10/12 04:50:44;;;;;;;4.25;1.08;;;;;;;;;;5067617;28;20468;-67
2021/10/12 04:53:11;;;;;;;3.85;1.05;;;;;;;;;;5061654;28;20506;-67
2021/10/12 04:55:40;;;;;;;3.85;0.88;;;;;;;;;;5063143;28;20139;-67
2021/10/12 04:58:08;;;;;;;2.08;0.85;;;;;;;;;;5061323;28;20562;-67
2021/10/12 05:00:35;;;;;;;2.83;1.05;;;;;;;;;;5065120;28;20072;-66
2021/10/12 05:03:01;;;;;;;0.93;0.63;;;;;;;;;;5044831;28;20048;-66
2021/10/12 05:05:29;;;;;;;1.52;0.77;;;;;;;;;;5064036;28;20485;-67
2021/10/12 05:07:55;;;;;;;1.85;0.88;;;;;;;;;;5060919;28;20103;-67
2021/10/12 05:10:22;;;;;;;3.70;0.85;;;;;;;;;;5058350;28;20131;-67
2021/10/12 05:12:49;;;;;;;0.85;0.63;;;;;;;;;;5057248;28;20132;-67
2021/10/12 05:15:21;;;;;;;1.20;0.80;;;;;;;;;;5059366;28;20551;-67
2021/10/12 05:17:49;;;;;;;2.22;1.05;;;;;;;;;;5063027;28;20106;-66
2021/10/12 05:20:15;;;;;;;1.00;0.77;;;;;;;;;;5059433;28;20083;-67
2021/10/12 05:22:42;;;;;;;3.72;1.10;;;;;;;;;;5063001;28;20382;-67
2021/10/12 05:25:09;;;;;;;1.50;0.80;;;;;;;;;;5062479;28;20076;-67
2021/10/12 05:27:36;;;;;;;2.33;0.80;;;;;;;;;;5062545;28;20143;-67
2021/10/12 05:30:03;;;;;;;0.93;0.63;;;;;;;;;;5055712;28;20147;-67
2021/10/12 05:32:30;;;;;;;1.42;1.00;;;;;;;;;;5058514;28;20397;-67
2021/10/12 05:34:59;;;;;;;1.08;0.80;;;;;;;;;;5065502;28;20055;-67
2021/10/12 05:37:26;;;;;;;2.85;1.50;;;;;;;;;;5060558;28;20040;-67
2021/10/12 05:39:53;;;;;;;1.75;0.75;;;;;;;;;;5060392;28;20105;-67
2021/10/12 05:42:19;;;;;;;2.80;0.90;;;;;;;;;;5056887;28;20088;-67
2021/10/12 05:44:46;;;;;;;2.63;0.70;;;;;;;;;;5067628;28;20468;-67
2021/10/12 05:47:12;;;;;;;2.83;0.77;;;;;;;;;;5069526;28;20080;-67
2021/10/12 05:49:40;;;;;;;4.03;1.10;;;;;;;;;;5063220;28;20076;-67
2021/10/12 05:52:08;;;;;;;1.30;0.90;;;;;;;;;;5066766;28;20579;-67
2021/10/12 05:54:39;;;;;;;1.10;1.00;;;;;;;;;;5061545;28;20447;-67
2021/10/12 05:57:06;;;;;;;2.05;1.00;;;;;;;;;;5069134;28;20081;-67
2021/10/12 05:59:33;;;;;;;3.85;1.00;;;;;;;;;;5062829;28;20445;-67
2021/10/12 06:02:00;;;;;;;1.40;1.20;;;;;;;;;;5058031;28;20471;-67
2021/10/12 06:04:26;;;;;;;2.42;1.08;;;;;;;;;;5059154;28;20037;-67
2021/10/12 06:06:56;;;;;;;1.25;1.05;;;;;;;;;;5059660;28;20127;-67
2021/10/12 06:09:22;;;;;;;3.08;0.73;;;;;;;;;;5067642;28;20134;-67
2021/10/12 06:11:49;;;;;;;2.67;1.02;;;;;;;;;;5068227;28;20075;-67
2021/10/12 06:14:15;;;;;;;0.95;0.82;;;;;;;;;;5064746;28;20442;-67
2021/10/12 06:16:42;;;;;;;2.20;1.00;;;;;;;;;;5066339;28;20136;-68
2021/10/12 06:19:09;;;;;;;3.20;1.30;;;;;;;;;;5067256;28;20041;-67
2021/10/12 06:21:35;;;;;;;1.25;0.90;;;;;;;;;;5064147;28;20322;-67
2021/10/12 06:24:02;;;;;;;2.17;1.10;;;;;;;;;;5062262;28;20099;-67
2021/10/12 06:26:28;;;;;;;4.13;1.17;;;;;;;;;;5061452;28;20460;-67
2021/10/12 06:28:55;;;;;;;2.92;1.10;;;;;;;;;;5059635;28;20087;-67
2021/10/12 06:31:26;;;;;;;4.90;1.00;;;;;;;;;;5064445;28;20102;-67
2021/10/12 06:33:52;;;;;;;1.17;1.08;;;;;;;;;;5063887;28;20087;-67
2021/10/12 06:36:19;;;;;;;3.33;1.05;;;;;;;;;;5062751;28;20083;-67
2021/10/12 06:38:45;;;;;;;15.50;2.88;;;;;;;;;;5064528;28;20076;-67
2021/10/12 06:41:12;;;;;;;2.50;1.02;;;;;;;;;;5065062;28;20119;-68
2021/10/12 06:43:38;;;;;;;1.38;0.88;;;;;;;;;;5062673;28;20080;-67
2021/10/12 06:46:05;;;;;;;1.80;1.20;;;;;;;;;;5060873;28;20574;-67
2021/10/12 06:48:32;;;;;;;2.38;1.10;;;;;;;;;;5060911;28;20309;-67
2021/10/12 06:50:58;;;;;;;1.13;1.00;;;;;;;;;;5064992;28;20044;-67
2021/10/12 06:53:46;;;;;;;2.25;1.13;;;;;;;;;;5060810;28;20072;-67
2021/10/12 06:56:13;;;;;;;1.42;1.00;;;;;;;;;;5061068;28;20163;-67
2021/10/12 06:58:40;;;;;;;1.35;0.90;;;;;;;;;;5059295;28;20080;-67
2021/10/12 07:01:19;;;;;;;0.90;0.70;;;;;;;;;;5061735;28;20053;-67
2021/10/12 07:03:46;;;;;;;1.73;0.90;;;;;;;;;;5064068;28;20186;-67
2021/10/12 07:06:16;;;;;;;4.97;0.93;;;;;;;;;;5064903;28;20461;-66
2021/10/12 07:08:42;;;;;;;1.70;0.90;;;;;;;;;;5062145;28;20477;-66
2021/10/12 07:11:09;;;;;;;3.33;0.80;;;;;;;;;;5059914;28;20080;-66
2021/10/12 07:13:35;;;;;;;1.92;1.33;;;;;;;;;;5061627;28;20091;-67
2021/10/12 07:16:04;;;;;;;3.85;0.90;;;;;;;;;;5067865;28;20118;-67
2021/10/12 07:18:31;;;;;;;;;;;;;;;;;;5057907;28;20556;-67
2021/10/12 07:20:58;;;;;;;1.27;0.82;;;;;;;;;;5060664;28;19959;-67
2021/10/12 07:23:24;;;;;;;1.15;0.70;;;;;;;;;;5063252;28;20135;-66
2021/10/12 07:25:51;;;;;;;1.38;0.80;;;;;;;;;;5062966;28;20079;-66
2021/10/12 07:28:17;;;;;;;2.40;0.90;;;;;;;;;;5067773;28;20072;-66
2021/10/12 07:30:44;;;;;;;0.82;0.80;;;;;;;;;;5064312;28;20144;-66
2021/10/12 07:33:10;;;;;;;2.05;0.93;;;;;;;;;;5063505;28;20139;-67
2021/10/12 07:35:54;;;;;;;0.88;0.70;;;;;;;;;;5064135;28;20055;-66
2021/10/12 07:38:21;;;;;;;2.03;1.00;;;;;;;;;;5065292;28;20598;-67
2021/10/12 07:40:47;;;;;;;1.25;0.90;;;;;;;;;;5042106;28;20053;-66
2021/10/12 07:43:14;;;;;;;3.88;0.80;;;;;;;;;;5057929;28;20136;-66
2021/10/12 07:45:40;;;;;;;1.90;0.67;;;;;;;;;;5057413;28;20095;-67
2021/10/12 07:48:07;;;;;;;3.23;0.87;;;;;;;;;;5052423;28;20164;-67
2021/10/12 07:50:34;;;;;;;2.87;0.73;;;;;;;;;;5062529;28;20475;-66
2021/10/12 07:53:01;;;;;;;1.05;0.70;;;;;;;;;;5061920;28;20075;-67
2021/10/12 07:55:37;;;;;;;1.40;0.75;;;;;;;;;;5062176;28;20124;-67
2021/10/12 07:58:04;;;;;;;6.28;0.90;;;;;;;;;;5064421;28;20135;-66
2021/10/12 08:00:31;;;;;;;0.80;0.50;;;;;;;;;;5064504;28;20213;-66
2021/10/12 08:03:02;;;;;;;3.75;0.90;;;;;;;;;;5060015;28;20045;-67
2021/10/12 08:05:29;;;;;;;2.30;0.73;;;;;;;;;;5057722;28;20102;-66
2021/10/12 08:07:55;;;;;;;6.65;0.77;;;;;;;;;;5057677;28;20079;-66
2021/10/12 08:10:29;;;;;;;2.00;0.43;;;;;;;;;;5055462;28;20501;-67
2021/10/12 08:12:58;;;;;;;0.77;0.52;;;;;;;;;;5058775;28;20099;-66
2021/10/12 08:15:25;;;;;;;1.83;0.70;;;;;;;;;;5059467;28;20239;-67
2021/10/12 08:17:52;;;;;;;0.93;0.50;;;;;;;;;;5060587;28;20183;-67
2021/10/12 08:20:19;;;;;;;1.35;0.80;;;;;;;;;;5062044;28;20287;-66
2021/10/12 08:22:46;;;;;;;1.17;0.50;;;;;;;;;;5061430;28;20076;-67
2021/10/12 08:25:12;;;;;;;3.10;0.70;;;;;;;;;;5060261;28;20102;-66
2021/10/12 08:27:39;;;;;;;2.75;0.80;;;;;;;;;;5060205;28;20087;-66
2021/10/12 08:30:07;;;;;;;5.38;0.93;;;;;;;;;;5062282;28;20495;-67
2021/10/12 08:32:33;;;;;;;;;;;;;;;;;;5063787;28;20508;-67
2021/10/12 08:35:07;;;;;;;1.08;0.70;;;;;;;;;;5058283;28;20396;-66
2021/10/12 08:37:36;;;;;;;0.88;0.55;;;;;;;;;;5059441;28;20085;-67
2021/10/12 08:40:04;;;;;;;4.65;0.90;;;;;;;;;;5055658;28;20127;-66
2021/10/12 08:42:33;;;;;;;2.35;0.60;;;;;;;;;;5052660;28;20094;-66
2021/10/12 08:45:07;;;;;;;4.82;0.60;;;;;;;;;;5063834;28;20051;-67
2021/10/12 08:47:34;;;;;;;1.65;0.60;;;;;;;;;;5061671;28;20049;-67
2021/10/12 08:50:03;;;;;;;1.17;0.70;;;;;;;;;;5059455;28;20132;-67
2021/10/12 08:52:29;;;;;;;1.80;0.47;;;;;;;;;;5063506;28;20174;-67
2021/10/12 08:54:56;;;;;;;3.13;0.50;;;;;;;;;;5064393;28;20570;-67
2021/10/12 08:57:43;;;;;;;1.50;0.60;;;;;;;;;;5059084;28;20083;-67
2021/10/12 09:00:11;;;;;;;3.38;0.82;;;;;;;;;;5053425;28;20072;-67
2021/10/12 09:02:57;;;;;;;2.22;0.70;;;;;;;;;;5055514;28;20069;-67
2021/10/12 09:05:25;;;;;;;3.03;0.65;;;;;;;;;;5059727;28;20056;-67
2021/10/12 09:07:51;;;;;;;3.58;0.60;;;;;;;;;;5066914;28;20424;-67
2021/10/12 09:10:19;;;;;;;4.32;0.60;;;;;;;;;;5061659;28;20169;-66
2021/10/12 09:12:48;;;;;;;2.80;0.43;;;;;;;;;;5061901;28;20094;-67
2021/10/12 09:15:14;;;;;;;2.92;0.80;;;;;;;;;;5060149;28;20131;-67
2021/10/12 09:17:41;;;;;;;2.35;0.70;;;;;;;;;;5062619;28;20070;-67
2021/10/12 09:20:11;;;;;;;2.67;0.47;;;;;;;;;;5044412;28;20072;-66
2021/10/12 09:22:38;;;;;;;1.45;0.80;;;;;;;;;;5061981;28;20087;-67
2021/10/12 09:25:06;;;;;;;1.67;0.70;;;;;;;;;;5037218;28;20076;-67
2021/10/12 09:27:52;;;;;;;1.00;0.65;;;;;;;;;;5055172;28;20087;-67
2021/10/12 09:30:25;;;;;;;3.42;0.98;;;;;;;;;;5061175;28;20040;-67
2021/10/12 09:33:11;;;;;;;1.40;0.70;;;;;;;;;;5062991;28;20080;-67
2021/10/12 09:35:37;;;;;;;2.47;0.80;;;;;;;;;;5057846;28;20086;-67
2021/10/12 09:38:07;;;;;;;1.65;0.63;;;;;;;;;;5060581;28;20127;-67
2021/10/12 09:40:35;;;;;;;2.70;0.65;;;;;;;;;;5062190;28;20516;-67
2021/10/12 09:43:02;;;;;;;2.78;0.50;;;;;;;;;;5059245;28;20080;-66
2021/10/12 09:45:37;;;;;;;1.63;0.57;;;;;;;;;;5062380;28;20048;-66
2021/10/12 09:48:23;;;;;;;1.67;0.50;;;;;;;;;;5057006;28;20053;-67
2021/10/12 09:50:53;;;;;;;4.03;0.60;;;;;;;;;;5056436;28;20144;-66
2021/10/12 09:53:32;;;;;;;0.30;0.30;;;;;;;;;;5055404;28;20167;-67
2021/10/12 09:55:59;;;;;;;2.05;0.47;;;;;;;;;;5057732;28;20083;-67
2021/10/12 09:58:30;;;;;;;1.40;0.50;;;;;;;;;;5059692;28;20127;-67
2021/10/12 10:00:59;;;;;;;0.55;0.35;;;;;;;;;;5057996;28;20083;-67
2021/10/12 10:03:27;;;;;;;1.25;0.52;;;;;;;;;;5058587;28;20456;-67
2021/10/12 10:05:54;;;;;;;2.63;0.55;;;;;;;;;;5058397;28;20045;-67
2021/10/12 10:08:21;;;;;;;1.13;0.63;;;;;;;;;;5063011;28;20048;-67
2021/10/12 10:10:48;;;;;;;;;;;;;;;;;;5061947;28;20048;-67
2021/10/12 10:13:16;;;;;;;0.82;0.68;;;;;;;;;;5061727;28;19967;-67
2021/10/12 10:15:43;;;;;;;1.42;0.60;;;;;;;;;;5058865;28;20525;-67
2021/10/12 10:18:09;;;;;;;;;;;;;;;;;;5054473;28;20049;-67
2021/10/12 10:20:36;;;;;;;0.63;0.40;;;;;;;;;;5053378;28;20431;-67
2021/10/12 10:23:03;;;;;;;1.10;0.50;;;;;;;;;;5054935;28;20077;-67
2021/10/12 10:25:34;;;;;;;2.20;0.37;;;;;;;;;;5055967;28;20107;-67
2021/10/12 10:28:16;;;;;;;2.90;0.60;;;;;;;;;;5060896;28;20349;-67
2021/10/12 10:30:44;;;;;;;1.70;0.60;;;;;;;;;;5060676;28;20060;-67
2021/10/12 10:33:10;;;;;;;;;;;;;;;;;;5064678;28;20494;-67
2021/10/12 10:35:39;;;;;;;4.13;0.40;;;;;;;;;;5066060;28;20376;-67
2021/10/12 10:38:20;;;;;;;0.63;0.40;;;;;;;;;;5060985;28;20091;-67
2021/10/12 10:40:48;;;;;;;1.00;0.40;;;;;;;;;;5061908;28;20044;-67
2021/10/12 10:43:14;;;;;;;;;;;;;;;;;;5056638;28;20136;-67
2021/10/12 10:45:43;;;;;;;0.57;0.28;;;;;;;;;;5056564;28;20336;-67
2021/10/12 10:48:10;;;;;;;2.42;0.30;;;;;;;;;;5059870;28;20056;-67
2021/10/12 10:50:37;;;;;;;;;;;;;;;;;;5067821;28;20124;-67
2021/10/12 10:53:04;;;;;;;0.47;0.32;;;;;;;;;;5064799;28;19921;-67
2021/10/12 10:55:32;;;;;;;0.40;0.35;;;;;;;;;;5061635;28;20497;-67
2021/10/12 10:58:15;;;;;;;0.38;0.25;;;;;;;;;;5063115;28;20095;-67
2021/10/12 11:00:41;;;;;;;1.08;0.50;;;;;;;;;;5064813;28;20072;-67
2021/10/12 11:03:09;;;;;;;2.63;0.40;;;;;;;;;;5059332;28;20506;-67
2021/10/12 11:05:36;;;;;;;0.20;0.20;;;;;;;;;;5055837;28;20107;-67
2021/10/12 11:08:23;;;;;;;0.40;0.32;;;;;;;;;;5053154;28;20128;-67
2021/10/12 11:10:56;;;;;;;1.98;1.30;;;;;;;;;;5061178;28;20056;-67
2021/10/12 11:13:27;;;;;;;1.45;0.77;;;;;;;;;;5057706;28;20136;-67
2021/10/12 11:15:54;;;;;;;0.30;0.30;;;;;;;;;;5061120;28;20131;-67
2021/10/12 11:18:20;;;;;;;2.10;1.20;;;;;;;;;;5060773;28;20147;-67
2021/10/12 11:20:48;;;;;;;2.25;1.08;;;;;;;;;;5064288;28;20334;-68
2021/10/12 11:23:22;;;;;;;0.43;0.35;;;;;;;;;;5061743;28;20164;-67
2021/10/12 11:25:59;;;;;;;0.30;0.30;;;;;;;;;;5064746;28;20092;-67
2021/10/12 11:28:27;;;;;;;0.57;0.30;;;;;;;;;;5057845;28;20080;-67
2021/10/12 11:30:54;;;;;;;0.47;0.35;;;;;;;;;;5061858;28;20308;-67
2021/10/12 11:33:28;;;;;;;0.10;0.10;;;;;;;;;;5058862;28;20056;-67
2021/10/12 11:35:57;;;;;;;0.95;0.30;;;;;;;;;;5055985;28;20080;-67
2021/10/12 11:38:28;;;;;;;0.60;0.25;;;;;;;;;;5058858;28;20119;-67
2021/10/12 11:40:55;;;;;;;2.83;0.28;;;;;;;;;;5062588;28;20041;-67
2021/10/12 11:43:29;;;;;;;0.40;0.40;;;;;;;;;;5060061;28;20044;-67
2021/10/12 11:46:00;;;;;;;0.30;0.20;;;;;;;;;;5066023;28;20075;-67
2021/10/12 11:48:32;;;;;;;2.72;0.40;;;;;;;;;;5062958;28;20044;-67
2021/10/12 11:51:11;;;;;;;0.45;0.30;;;;;;;;;;5064448;28;20083;-67
2021/10/12 11:53:40;;;;;;;0.38;0.30;;;;;;;;;;5066018;28;20080;-68
2021/10/12 11:56:07;;;;;;;0.88;0.45;;;;;;;;;;5059043;28;20073;-67
2021/10/12 11:58:33;;;;;;;0.40;0.30;;;;;;;;;;5057671;28;20080;-67
2021/10/12 12:01:00;;;;;;;1.83;0.40;;;;;;;;;;5056510;28;20628;-68
2021/10/12 12:03:27;;;;;;;0.30;0.30;;;;;;;;;;5054387;28;20052;-67
2021/10/12 12:05:55;;;;;;;0.65;0.20;;;;;;;;;;5063443;28;20083;-67
2021/10/12 12:08:22;;;;;;;0.57;0.40;;;;;;;;;;5066103;28;20044;-67
2021/10/12 12:10:49;;;;;;;;;;;;;;;;;;5062796;28;20212;-68
2021/10/12 12:13:16;;;;;;;0.68;0.40;;;;;;;;;;5062056;28;20031;-67
2021/10/12 12:15:43;;;;;;;1.60;0.40;;;;;;;;;;5064117;28;20135;-67
2021/10/12 12:18:13;;;;;;;0.80;0.40;;;;;;;;;;5056442;28;20140;-67
2021/10/12 12:20:59;;;;;;;0.55;0.20;;;;;;;;;;5046391;28;20144;-67
2021/10/12 12:23:34;;;;;;;0.52;0.30;;;;;;;;;;5052680;28;20626;-68
2021/10/12 12:26:01;;;;;;;0.25;0.25;;;;;;;;;;5054561;28;20135;-67
2021/10/12 12:28:28;;;;;;;;;;;;;;;;;;5059897;28;20468;-67
2021/10/12 12:30:55;;;;;;;0.73;0.40;;;;;;;;;;5062102;28;19920;-67
2021/10/12 12:33:22;;;;;;;1.02;0.30;;;;;;;;;;5060111;28;20135;-67
2021/10/12 12:35:49;;;;;;;0.77;0.40;;;;;;;;;;5061049;28;20139;-68
2021/10/12 12:38:16;;;;;;;;;;;;;;;;;;5063131;28;20147;-67
2021/10/12 12:40:46;;;;;;;1.00;0.25;;;;;;;;;;5062685;28;19939;-67
2021/10/12 12:43:16;;;;;;;1.17;0.35;;;;;;;;;;5060332;28;20052;-67
2021/10/12 12:45:42;;;;;;;0.20;0.20;;;;;;;;;;5059963;28;20135;-68
2021/10/12 12:48:09;;;;;;;0.75;0.30;;;;;;;;;;5061056;28;20048;-68
2021/10/12 12:50:37;;;;;;;0.80;0.35;;;;;;;;;;5060460;28;20135;-68
2021/10/12 12:53:05;;;;;;;0.82;0.50;;;;;;;;;;5055289;28;20135;-68
2021/10/12 12:55:37;;;;;;;1.75;0.32;;;;;;;;;;5054618;28;20091;-67
2021/10/12 12:58:04;;;;;;;1.30;0.30;;;;;;;;;;5057365;28;20076;-67
2021/10/12 13:00:32;;;;;;;0.57;0.20;;;;;;;;;;5059040;28;20056;-67
2021/10/12 13:02:59;;;;;;;;;;;;;;;;;;5063556;28;20283;-67
2021/10/12 13:05:26;;;;;;;0.20;0.20;;;;;;;;;;5061399;28;20372;-67
2021/10/12 13:07:53;;;;;;;0.57;0.30;;;;;;;;;;5064172;28;20135;-68
2021/10/12 13:10:21;;;;;;;0.73;0.28;;;;;;;;;;5058445;28;20095;-69
2021/10/12 13:12:48;;;;;;;3.00;0.75;;;;;;;;;;5051489;28;20143;-67
2021/10/12 13:15:14;;;;;;;0.10;0.10;;;;;;;;;;5051411;28;20140;-68
2021/10/12 13:17:41;;;;;;;0.73;0.27;;;;;;;;;;5051083;28;20151;-68
2021/10/12 13:20:10;;;;;;;0.38;0.22;;;;;;;;;;5049668;28;20327;-67
2021/10/12 13:22:37;;;;;;;0.20;0.20;;;;;;;;;;5053129;28;20064;-68
2021/10/12 13:25:05;;;;;;;0.30;0.30;;;;;;;;;;5055671;28;20051;-68
2021/10/12 13:27:31;;;;;;;0.20;0.13;;;;;;;;;;5061441;28;20136;-68
2021/10/12 13:29:58;;;;;;;0.25;0.10;;;;;;;;;;5061656;28;20080;-67
2021/10/12 13:32:24;;;;;;;0.63;0.20;;;;;;;;;;5064193;28;20080;-68
2021/10/12 13:34:53;;;;;;;0.38;0.32;;;;;;;;;;5063036;28;20054;-68
2021/10/12 13:37:20;;;;;;;1.27;0.30;;;;;;;;;;5064377;28;20497;-68
2021/10/12 13:39:47;;;;;;;0.32;0.30;;;;;;;;;;5057957;28;20131;-68
2021/10/12 13:42:14;;;;;;;0.43;0.13;;;;;;;;;;5052945;28;20049;-67
2021/10/12 13:44:40;;;;;;;0.73;0.20;;;;;;;;;;5055490;28;20080;-67
2021/10/12 13:47:07;;;;;;;0.20;0.20;;;;;;;;;;5057569;28;20479;-67
2021/10/12 13:49:34;;;;;;;2.72;0.30;;;;;;;;;;5063660;28;20144;-67
2021/10/12 13:52:02;;;;;;;0.30;0.28;;;;;;;;;;5064459;28;20116;-68
2021/10/12 13:54:28;;;;;;;0.52;0.20;;;;;;;;;;5061403;28;20048;-69
2021/10/12 13:56:57;;;;;;;0.10;0.10;;;;;;;;;;5062126;28;20099;-68
2021/10/12 13:59:24;;;;;;;0.68;0.30;;;;;;;;;;5062333;28;20044;-67
2021/10/12 14:01:51;;;;;;;0.30;0.20;;;;;;;;;;5057915;28;20049;-68
2021/10/12 14:04:18;;;;;;;0.20;0.20;;;;;;;;;;5055962;28;20139;-68
2021/10/12 14:06:44;;;;;;;0.25;0.10;;;;;;;;;;5059804;28;20107;-67
2021/10/12 14:09:11;;;;;;;0.45;0.30;;;;;;;;;;5061288;28;20099;-68
2021/10/12 14:11:38;;;;;;;2.50;0.50;;;;;;;;;;5060848;28;20049;-68
2021/10/12 14:14:05;;;;;;;0.40;0.30;;;;;;;;;;5061718;28;20131;-67
2021/10/12 14:16:31;;;;;;;0.52;0.22;;;;;;;;;;5059447;28;20148;-67
2021/10/12 14:18:58;;;;;;;1.50;0.40;;;;;;;;;;5062700;28;20048;-67
2021/10/12 14:21:25;;;;;;;0.27;0.20;;;;;;;;;;5066062;28;20602;-68
2021/10/12 14:23:51;;;;;;;0.32;0.25;;;;;;;;;;5064295;28;20505;-67
2021/10/12 14:26:18;;;;;;;0.57;0.25;;;;;;;;;;5053700;28;20139;-67
2021/10/12 14:28:44;;;;;;;0.32;0.30;;;;;;;;;;5062669;28;20136;-68
2021/10/12 14:31:11;;;;;;;0.32;0.20;;;;;;;;;;5063313;28;20049;-68
2021/10/12 14:33:39;;;;;;;0.40;0.20;;;;;;;;;;5058177;28;20053;-67
2021/10/12 14:36:05;;;;;;;1.30;0.35;;;;;;;;;;5056554;28;20124;-67
2021/10/12 14:38:32;;;;;;;0.50;0.30;;;;;;;;;;5059067;28;20076;-67
2021/10/12 14:40:59;;;;;;;0.65;0.30;;;;;;;;;;5061015;28;20136;-67
2021/10/12 14:43:25;;;;;;;0.77;0.30;;;;;;;;;;5064150;28;20123;-67
2021/10/12 14:45:51;;;;;;;0.63;0.28;;;;;;;;;;5063152;28;20056;-67
2021/10/12 14:48:18;;;;;;;1.48;0.38;;;;;;;;;;5065586;28;20588;-67
2021/10/12 14:50:44;;;;;;;0.65;0.38;;;;;;;;;;5066944;28;20084;-68